createdAt,value
2018-11-14T00:00:10.504Z,101843.59
2018-11-14T00:02:38.504Z,101847.89
2018-11-14T00:05:07.190Z,101856.55
2018-11-14T00:07:35.176Z,101860.45
2018-11-14T00:10:03.257Z,101854.80
2018-11-14T00:12:31.310Z,101852.75
2018-11-14T00:14:59.300Z,101852.33
2018-11-14T00:17:27.308Z,101852.50
2018-11-14T00:19:55.655Z,101859.05
2018-11-14T00:22:23.388Z,101860.83
2018-11-14T00:24:51.430Z,101865.81
2018-11-14T00:27:19.340Z,101857.09
2018-11-14T00:29:47.308Z,101861.56
2018-11-14T00:32:15.303Z,101870.11
2018-11-14T00:34:43.370Z,101872.71
2018-11-14T00:37:11.307Z,101874.88
2018-11-14T00:39:39.277Z,101879.81
2018-11-14T00:42:07.269Z,101881.81
2018-11-14T00:44:35.254Z,101879.39
2018-11-14T00:47:03.256Z,101890.37
2018-11-14T00:49:31.245Z,101897.77
2018-11-14T00:51:59.236Z,101902.58
2018-11-14T00:54:27.296Z,101905.61
2018-11-14T00:56:55.337Z,101911.06
2018-11-14T00:59:23.333Z,101908.94
2018-11-14T01:01:51.403Z,101907.06
2018-11-14T01:04:20.355Z,101909.52
2018-11-14T01:06:48.337Z,101917.61
2018-11-14T01:09:16.402Z,101912.89
2018-11-14T01:11:44.365Z,101917.83
2018-11-14T01:14:12.344Z,101915.23
2018-11-14T01:16:40.364Z,101908.25
2018-11-14T01:19:09.233Z,101907.06
2018-11-14T01:21:37.364Z,101909.05
2018-11-14T01:24:05.429Z,101899.82
2018-11-14T01:26:33.447Z,101909.40
2018-11-14T01:29:01.509Z,101910.08
2018-11-14T01:31:29.530Z,101905.69
2018-11-14T01:33:57.565Z,101903.50
2018-11-14T01:36:25.536Z,101902.47
2018-11-14T01:38:53.552Z,101905.77
2018-11-14T01:41:21.539Z,101906.58
2018-11-14T01:43:49.549Z,101905.39
2018-11-14T01:46:17.648Z,101908.37
2018-11-14T01:48:45.641Z,101912.95
2018-11-14T01:51:13.729Z,101912.25
2018-11-14T01:53:41.737Z,101911.17
2018-11-14T01:56:09.720Z,101913.52
2018-11-14T01:58:37.712Z,101910.30
2018-11-14T02:01:05.825Z,101915.16
2018-11-14T02:03:33.851Z,101913.97
2018-11-14T02:06:01.838Z,101911.72
2018-11-14T02:08:29.825Z,101916.98
2018-11-14T02:10:57.813Z,101915.47
2018-11-14T02:13:25.809Z,101922.45
2018-11-14T02:15:53.798Z,101924.81
2018-11-14T02:18:21.806Z,101927.19
2018-11-14T02:20:49.790Z,101924.20
2018-11-14T02:23:17.793Z,101927.77
2018-11-14T02:25:45.785Z,101926.80
2018-11-14T02:28:19.555Z,101921.30
2018-11-14T02:30:47.523Z,101918.86
2018-11-14T02:33:15.513Z,101925.25
2018-11-14T02:35:43.533Z,101921.83
2018-11-14T02:38:11.533Z,101913.00
2018-11-14T02:40:39.528Z,101927.64
2018-11-14T02:43:07.508Z,101924.09
2018-11-14T02:45:35.548Z,101917.71
2018-11-14T02:48:03.537Z,101921.47
2018-11-14T02:50:31.528Z,101900.40
2018-11-14T02:52:59.534Z,101903.81
2018-11-14T02:55:27.533Z,101903.45
2018-11-14T02:57:55.549Z,101899.00
2018-11-14T03:00:23.565Z,101905.39
2018-11-14T03:02:51.539Z,101905.32
2018-11-14T03:05:19.530Z,101896.09
2018-11-14T03:07:47.520Z,101897.61
2018-11-14T03:10:17.756Z,101898.54
2018-11-14T03:12:45.736Z,101907.87
2018-11-14T03:15:15.760Z,101907.53
2018-11-14T03:17:43.797Z,101910.40
2018-11-14T03:20:14.085Z,101905.74
2018-11-14T03:22:42.093Z,101910.33
2018-11-14T03:25:11.306Z,101907.21
2018-11-14T03:27:39.300Z,101912.02
2018-11-14T03:30:09.384Z,101911.98
2018-11-14T03:32:37.374Z,101920.91
2018-11-14T03:35:06.360Z,101916.59
2018-11-14T03:37:34.337Z,101916.38
2018-11-14T03:40:02.344Z,101904.22
2018-11-14T03:42:30.389Z,101909.41
2018-11-14T03:44:58.377Z,101908.80
2018-11-14T03:47:26.365Z,101900.27
2018-11-14T03:49:54.404Z,101903.17
2018-11-14T03:52:22.417Z,101896.03
2018-11-14T03:54:50.417Z,101893.08
2018-11-14T03:57:18.414Z,101897.21
2018-11-14T03:59:46.425Z,101894.39
2018-11-14T04:02:14.391Z,101898.48
2018-11-14T04:04:42.389Z,101904.53
2018-11-14T04:07:10.379Z,101906.88
2018-11-14T04:09:38.368Z,101908.29
2018-11-14T04:12:06.356Z,101896.75
2018-11-14T04:14:34.352Z,101902.30
2018-11-14T04:17:02.365Z,101892.63
2018-11-14T04:19:30.392Z,101896.95
2018-11-14T04:21:58.376Z,101894.19
2018-11-14T04:24:26.381Z,101891.83
2018-11-14T04:26:54.368Z,101886.40
2018-11-14T04:29:22.356Z,101888.22
2018-11-14T04:31:50.432Z,101888.03
2018-11-14T04:34:18.432Z,101899.66
2018-11-14T04:36:46.419Z,101905.94
2018-11-14T04:39:14.407Z,101899.30
2018-11-14T04:41:42.394Z,101910.61
2018-11-14T04:44:10.397Z,101905.14
2018-11-14T04:46:38.461Z,101903.54
2018-11-14T04:49:06.469Z,101906.30
2018-11-14T04:51:34.526Z,101912.83
2018-11-14T04:54:02.509Z,101913.72
2018-11-14T04:56:30.494Z,101917.30
2018-11-14T04:58:58.486Z,101909.31
2018-11-14T05:01:26.474Z,101896.75
2018-11-14T05:03:54.536Z,101904.54
2018-11-14T05:06:22.558Z,101906.95
2018-11-14T05:08:50.557Z,101913.86
2018-11-14T05:11:18.586Z,101910.41
2018-11-14T05:13:46.576Z,101903.00
2018-11-14T05:16:14.574Z,101911.98
2018-11-14T05:18:42.636Z,101913.65
2018-11-14T05:21:10.652Z,101917.41
2018-11-14T05:23:38.636Z,101921.20
2018-11-14T05:26:06.639Z,101918.77
2018-11-14T05:28:34.675Z,101927.89
2018-11-14T05:31:02.713Z,101931.48
2018-11-14T05:33:30.715Z,101924.87
2018-11-14T05:35:58.701Z,101928.07
2018-11-14T05:38:26.841Z,101926.57
2018-11-14T05:40:54.836Z,101924.80
2018-11-14T05:43:22.848Z,101928.84
2018-11-14T05:45:50.873Z,101930.02
2018-11-14T05:48:18.881Z,101917.95
2018-11-14T05:50:46.891Z,101915.53
2018-11-14T05:53:14.926Z,101917.81
2018-11-14T05:55:42.917Z,101920.20
2018-11-14T05:58:10.949Z,101929.42
2018-11-14T06:00:38.949Z,101928.46
2018-11-14T06:03:06.956Z,101924.61
2018-11-14T06:05:34.930Z,101930.23
2018-11-14T06:08:02.933Z,101936.89
2018-11-14T06:10:30.914Z,101936.49
2018-11-14T06:12:58.916Z,101937.83
2018-11-14T06:15:27.010Z,101938.17
2018-11-14T06:17:56.236Z,101937.69
2018-11-14T06:20:24.673Z,101934.28
2018-11-14T06:22:53.120Z,101929.24
2018-11-14T06:25:31.427Z,101937.00
2018-11-14T06:28:00.436Z,101948.13
2018-11-14T06:30:28.580Z,101947.00
2018-11-14T06:32:57.074Z,101951.20
2018-11-14T06:35:25.240Z,101953.45
2018-11-14T06:37:53.549Z,101952.30
2018-11-14T06:40:21.668Z,101951.87
2018-11-14T06:42:49.673Z,101958.59
2018-11-14T06:45:18.959Z,101948.43
2018-11-14T06:47:48.264Z,101950.14
2018-11-14T06:50:16.439Z,101953.13
2018-11-14T06:52:45.228Z,101952.73
2018-11-14T06:55:14.412Z,101954.31
2018-11-14T06:57:42.601Z,101956.36
2018-11-14T07:00:14.140Z,101959.47
2018-11-14T07:02:42.733Z,101955.16
2018-11-14T07:05:13.282Z,101955.67
2018-11-14T07:07:41.813Z,101954.33
2018-11-14T07:10:11.596Z,101955.87
2018-11-14T07:12:39.664Z,101962.34
2018-11-14T07:15:11.069Z,101969.59
2018-11-14T07:17:39.078Z,101972.03
2018-11-14T07:20:20.416Z,101974.91
2018-11-14T07:22:48.478Z,101974.11
2018-11-14T07:25:16.768Z,101965.44
2018-11-14T07:27:44.948Z,101972.55
2018-11-14T07:30:15.069Z,101982.98
2018-11-14T07:32:44.476Z,101986.52
2018-11-14T07:35:13.588Z,101980.48
2018-11-14T07:37:42.221Z,101970.84
2018-11-14T07:40:12.373Z,101981.64
2018-11-14T07:42:41.045Z,101983.00
2018-11-14T07:45:11.074Z,101986.05
2018-11-14T07:47:39.133Z,101990.84
2018-11-14T07:50:11.689Z,101988.59
2018-11-14T07:52:39.568Z,101994.22
2018-11-14T07:55:08.684Z,101997.61
2018-11-14T07:57:36.845Z,101992.66
2018-11-14T08:00:08.026Z,101993.25
2018-11-14T08:02:36.023Z,101984.87
2018-11-14T08:05:04.366Z,101984.52
2018-11-14T08:07:32.439Z,101989.55
2018-11-14T08:10:00.478Z,101985.55
2018-11-14T08:12:28.469Z,101987.97
2018-11-14T08:14:56.541Z,101992.45
2018-11-14T08:17:24.527Z,101993.00
2018-11-14T08:19:52.500Z,101999.91
2018-11-14T08:22:20.501Z,101999.69
2018-11-14T08:24:48.542Z,101999.30
2018-11-14T08:27:16.501Z,101996.61
2018-11-14T08:29:44.491Z,102001.20
2018-11-14T08:32:12.489Z,102008.34
2018-11-14T08:34:40.468Z,102015.57
2018-11-14T08:37:08.441Z,102005.67
2018-11-14T08:39:43.428Z,102014.59
2018-11-14T08:42:11.416Z,102009.66
2018-11-14T08:44:39.450Z,102014.81
2018-11-14T08:47:07.476Z,102020.48
2018-11-14T08:49:35.454Z,102032.45
2018-11-14T08:52:03.463Z,102032.05
2018-11-14T08:54:31.454Z,102035.58
2018-11-14T08:56:59.445Z,102042.77
2018-11-14T08:59:27.428Z,102042.72
2018-11-14T09:01:56.208Z,102044.52
2018-11-14T09:04:24.217Z,102040.62
2018-11-14T09:06:52.227Z,102044.67
2018-11-14T09:09:20.230Z,102049.14
2018-11-14T09:11:48.204Z,102052.05
2018-11-14T09:14:16.184Z,102056.06
2018-11-14T09:16:44.177Z,102048.62
2018-11-14T09:19:12.167Z,102058.80
2018-11-14T09:21:40.157Z,102063.86
2018-11-14T09:24:08.137Z,102060.56
2018-11-14T09:26:36.128Z,102056.52
2018-11-14T09:29:04.278Z,102061.88
2018-11-14T09:31:32.289Z,102058.36
2018-11-14T09:34:00.265Z,102056.84
2018-11-14T09:36:28.250Z,102058.09
2018-11-14T09:38:56.232Z,102052.55
2018-11-14T09:41:24.301Z,102059.27
2018-11-14T09:43:52.226Z,102057.22
2018-11-14T09:46:20.165Z,102052.53
2018-11-14T09:48:48.156Z,102056.98
2018-11-14T09:51:16.139Z,102053.02
2018-11-14T09:53:44.124Z,102052.72
2018-11-14T09:56:12.134Z,102060.05
2018-11-14T09:58:40.168Z,102056.81
2018-11-14T10:01:08.122Z,102055.99
2018-11-14T10:03:36.203Z,102061.51
2018-11-14T10:06:04.196Z,102061.45
2018-11-14T10:08:32.164Z,102065.19
2018-11-14T10:11:00.207Z,102067.02
2018-11-14T10:13:28.149Z,102062.11
2018-11-14T10:15:56.144Z,102052.49
2018-11-14T10:18:24.179Z,102051.98
2018-11-14T10:20:52.120Z,102055.05
2018-11-14T10:23:20.105Z,102051.11
2018-11-14T10:25:48.137Z,102057.80
2018-11-14T10:28:16.121Z,102065.34
2018-11-14T10:30:44.131Z,102059.98
2018-11-14T10:33:12.093Z,102058.43
2018-11-14T10:35:40.074Z,102052.38
2018-11-14T10:38:08.069Z,102060.41
2018-11-14T10:40:36.042Z,102061.09
2018-11-14T10:43:04.083Z,102056.18
2018-11-14T10:45:32.021Z,102052.75
2018-11-14T10:48:00.005Z,102048.39
2018-11-14T10:50:28.172Z,102037.03
2018-11-14T10:52:56.253Z,102035.47
2018-11-14T10:55:24.465Z,102027.39
2018-11-14T10:57:52.977Z,102040.18
2018-11-14T11:00:28.489Z,102034.02
2018-11-14T11:03:02.177Z,102026.22
2018-11-14T11:05:35.644Z,102028.33
2018-11-14T11:08:09.287Z,102026.33
2018-11-14T11:10:42.745Z,102021.39
2018-11-14T11:13:16.135Z,102018.17
2018-11-14T11:15:49.667Z,102021.25
2018-11-14T11:18:18.445Z,102017.12
2018-11-14T11:20:46.423Z,102021.03
2018-11-14T11:23:14.436Z,102016.63
2018-11-14T11:25:42.389Z,102008.26
2018-11-14T11:28:10.388Z,102005.77
2018-11-14T11:30:38.836Z,101998.99
2018-11-14T11:33:06.965Z,101993.37
2018-11-14T11:35:34.948Z,101987.20
2018-11-14T11:38:03.128Z,101978.55
2018-11-14T11:40:31.481Z,101978.95
2018-11-14T11:42:59.522Z,101982.75
2018-11-14T11:45:27.504Z,101982.11
2018-11-14T11:47:55.501Z,101980.45
2018-11-14T11:50:23.492Z,101989.62
2018-11-14T11:52:51.489Z,101981.97
2018-11-14T11:55:19.764Z,101983.11
2018-11-14T11:57:47.851Z,101980.16
2018-11-14T12:00:15.950Z,101988.12
2018-11-14T12:02:44.125Z,101983.92
2018-11-14T12:05:13.324Z,101984.65
2018-11-14T12:07:42.005Z,101977.70
2018-11-14T12:10:11.421Z,101979.31
2018-11-14T12:12:39.588Z,101976.06
2018-11-14T12:15:09.120Z,101974.33
2018-11-14T12:17:37.612Z,101975.11
2018-11-14T12:20:06.914Z,101979.21
2018-11-14T12:22:34.924Z,101983.35
2018-11-14T12:25:02.921Z,101982.19
2018-11-14T12:27:30.963Z,101976.09
2018-11-14T12:29:59.012Z,101977.42
2018-11-14T12:32:27.126Z,101972.29
2018-11-14T12:34:55.124Z,101973.63
2018-11-14T12:37:23.077Z,101968.08
2018-11-14T12:39:51.069Z,101972.00
2018-11-14T12:42:19.058Z,101977.53
2018-11-14T12:44:47.205Z,101970.95
2018-11-14T12:47:15.214Z,101974.80
2018-11-14T12:49:43.202Z,101966.27
2018-11-14T12:52:11.198Z,101958.11
2018-11-14T12:54:39.189Z,101950.02
2018-11-14T12:57:07.173Z,101953.98
2018-11-14T12:59:35.263Z,101946.81
2018-11-14T13:02:03.212Z,101940.41
2018-11-14T13:04:31.205Z,101943.17
2018-11-14T13:06:59.203Z,101940.50
2018-11-14T13:09:27.246Z,101949.56
2018-11-14T13:11:55.328Z,101958.30
2018-11-14T13:14:23.528Z,101972.05
2018-11-14T13:16:51.542Z,101971.43
2018-11-14T13:19:19.540Z,101970.09
2018-11-14T13:21:47.518Z,101968.72
2018-11-14T13:24:15.684Z,101960.17
2018-11-14T13:26:43.828Z,101948.42
2018-11-14T13:29:11.886Z,101951.57
2018-11-14T13:31:39.869Z,101948.33
2018-11-14T13:34:07.977Z,101947.78
2018-11-14T13:36:36.008Z,101944.80
2018-11-14T13:39:05.609Z,101929.52
2018-11-14T13:41:33.623Z,101939.92
2018-11-14T13:44:01.765Z,101943.70
2018-11-14T13:46:29.837Z,101942.73
2018-11-14T13:48:57.989Z,101942.77
2018-11-14T13:51:25.885Z,101943.89
2018-11-14T13:53:53.956Z,101938.56
2018-11-14T13:56:21.989Z,101931.52
2018-11-14T13:58:50.002Z,101930.94
2018-11-14T14:01:18.067Z,101936.43
2018-11-14T14:03:46.081Z,101932.41
2018-11-14T14:06:14.258Z,101927.81
2018-11-14T14:08:42.277Z,101937.28
2018-11-14T14:11:10.275Z,101938.83
2018-11-14T14:13:42.570Z,101937.84
2018-11-14T14:16:10.654Z,101943.77
2018-11-14T14:18:38.673Z,101948.39
2018-11-14T14:21:06.663Z,101955.11
2018-11-14T14:23:34.658Z,101952.19
2018-11-14T14:26:02.653Z,101953.78
2018-11-14T14:28:30.638Z,101948.60
2018-11-14T14:30:58.737Z,101942.17
2018-11-14T14:33:26.685Z,101948.57
2018-11-14T14:35:54.679Z,101942.05
2018-11-14T14:38:22.670Z,101941.08
2018-11-14T14:40:50.666Z,101940.77
2018-11-14T14:43:18.636Z,101940.12
2018-11-14T14:45:46.652Z,101945.05
2018-11-14T14:48:14.697Z,101945.53
2018-11-14T14:50:42.701Z,101957.16
2018-11-14T14:53:10.716Z,101954.20
2018-11-14T14:55:38.709Z,101943.94
2018-11-14T14:58:06.693Z,101948.48
2018-11-14T15:00:34.845Z,101946.50
2018-11-14T15:03:02.902Z,101953.81
2018-11-14T15:05:30.919Z,101945.45
2018-11-14T15:07:58.912Z,101945.37
2018-11-14T15:10:27.938Z,101943.06
2018-11-14T15:12:55.954Z,101940.88
2018-11-14T15:15:23.982Z,101936.31
2018-11-14T15:17:51.949Z,101931.95
2018-11-14T15:20:21.301Z,101927.86
2018-11-14T15:22:49.362Z,101924.89
2018-11-14T15:25:18.678Z,101925.70
2018-11-14T15:27:47.306Z,101918.02
2018-11-14T15:30:18.275Z,101917.72
2018-11-14T15:32:46.301Z,101917.25
2018-11-14T15:35:14.958Z,101921.03
2018-11-14T15:37:42.964Z,101927.51
2018-11-14T15:40:12.773Z,101938.59
2018-11-14T15:42:40.831Z,101933.25
2018-11-14T15:45:11.591Z,101934.77
2018-11-14T15:47:39.644Z,101921.19
2018-11-14T15:50:10.753Z,101920.94
2018-11-14T15:52:38.749Z,101922.13
2018-11-14T15:55:07.718Z,101924.73
2018-11-14T15:57:36.132Z,101921.67
2018-11-14T16:00:05.597Z,101909.97
2018-11-14T16:02:33.648Z,101908.27
2018-11-14T16:05:01.661Z,101907.89
2018-11-14T16:07:29.713Z,101902.91
2018-11-14T16:09:57.749Z,101902.43
2018-11-14T16:12:25.778Z,101903.15
2018-11-14T16:14:53.805Z,101911.86
2018-11-14T16:17:21.799Z,101908.66
2018-11-14T16:19:49.814Z,101907.63
2018-11-14T16:22:17.814Z,101912.39
2018-11-14T16:24:45.911Z,101916.52
2018-11-14T16:27:14.129Z,101919.59
2018-11-14T16:29:42.121Z,101919.64
2018-11-14T16:32:10.096Z,101925.02
2018-11-14T16:34:38.212Z,101922.86
2018-11-14T16:37:06.277Z,101923.04
2018-11-14T16:39:34.305Z,101925.63
2018-11-14T16:42:02.293Z,101924.84
2018-11-14T16:44:31.149Z,101918.37
2018-11-14T16:46:59.716Z,101917.67
2018-11-14T16:49:28.389Z,101924.59
2018-11-14T16:51:56.975Z,101916.87
2018-11-14T16:54:25.532Z,101910.66
2018-11-14T16:56:54.177Z,101904.02
2018-11-14T16:59:22.382Z,101910.42
2018-11-14T17:01:50.391Z,101902.39
2018-11-14T17:04:19.068Z,101904.53
2018-11-14T17:06:47.775Z,101909.77
2018-11-14T17:09:16.209Z,101905.72
2018-11-14T17:11:45.022Z,101902.67
2018-11-14T17:14:14.030Z,101900.66
2018-11-14T17:16:42.845Z,101899.73
2018-11-14T17:19:11.365Z,101905.04
2018-11-14T17:21:39.996Z,101904.31
2018-11-14T17:24:08.717Z,101903.84
2018-11-14T17:26:37.043Z,101904.42
2018-11-14T17:29:05.049Z,101899.03
2018-11-14T17:31:37.570Z,101908.77
2018-11-14T17:34:05.932Z,101918.04
2018-11-14T17:36:33.912Z,101917.80
2018-11-14T17:39:01.943Z,101915.37
2018-11-14T17:41:29.953Z,101911.95
2018-11-14T17:43:57.989Z,101910.60
2018-11-14T17:46:25.973Z,101903.98
2018-11-14T17:48:53.961Z,101901.70
2018-11-14T17:51:22.002Z,101904.52
2018-11-14T17:53:49.995Z,101899.65
2018-11-14T17:58:52.643Z,101911.94
2018-11-14T18:01:20.635Z,101918.41
2018-11-14T18:03:48.621Z,101915.92
2018-11-14T18:06:16.604Z,101915.97
2018-11-14T18:08:44.701Z,101913.59
2018-11-14T18:11:12.737Z,101918.59
2018-11-14T18:13:40.725Z,101925.48
2018-11-14T18:16:08.720Z,101924.45
2018-11-14T18:18:36.697Z,101921.53
2018-11-14T18:21:04.893Z,101918.74
2018-11-14T18:23:32.882Z,101917.51
2018-11-14T18:26:00.868Z,101914.00
2018-11-14T18:28:28.861Z,101915.88
2018-11-14T18:30:56.871Z,101910.47
2018-11-14T18:33:24.849Z,101907.69
2018-11-14T18:35:52.870Z,101906.59
2018-11-14T18:38:20.858Z,101905.70
2018-11-14T18:40:48.877Z,101906.70
2018-11-14T18:43:16.969Z,101899.84
2018-11-14T18:45:45.010Z,101900.37
2018-11-14T18:48:12.952Z,101904.20
2018-11-14T18:50:40.964Z,101902.45
2018-11-14T18:53:08.940Z,101902.55
2018-11-14T18:55:36.924Z,101900.95
2018-11-14T18:58:05.452Z,101900.04
2018-11-14T19:00:34.176Z,101907.84
2018-11-14T19:03:02.202Z,101909.31
2018-11-14T19:05:30.194Z,101910.97
2018-11-14T19:07:58.172Z,101906.33
2018-11-14T19:10:28.498Z,101909.97
2018-11-14T19:12:56.634Z,101911.48
2018-11-14T19:15:25.935Z,101922.06
2018-11-14T19:17:53.993Z,101924.80
2018-11-14T19:20:23.328Z,101929.42
2018-11-14T19:22:51.713Z,101929.14
2018-11-14T19:25:21.126Z,101931.27
2018-11-14T19:27:49.477Z,101931.13
2018-11-14T19:30:19.729Z,101937.35
2018-11-14T19:32:48.825Z,101941.78
2018-11-14T19:35:17.001Z,101939.92
2018-11-14T19:37:46.169Z,101939.03
2018-11-14T19:40:15.977Z,101932.38
2018-11-14T19:42:44.722Z,101933.75
2018-11-14T19:45:14.624Z,101931.06
2018-11-14T19:47:43.266Z,101927.95
2018-11-14T19:50:15.528Z,101918.04
2018-11-14T19:52:43.944Z,101917.24
2018-11-14T19:55:13.318Z,101915.58
2018-11-14T19:57:42.357Z,101920.88
2018-11-14T20:00:13.145Z,101922.47
2018-11-14T20:02:41.241Z,101922.00
2018-11-14T20:05:10.156Z,101923.38
2018-11-14T20:07:38.413Z,101914.45
2018-11-14T20:10:08.147Z,101918.03
2018-11-14T20:12:36.130Z,101917.66
2018-11-14T20:15:04.545Z,101924.52
2018-11-14T20:17:32.561Z,101925.84
2018-11-14T20:20:00.551Z,101925.84
2018-11-14T20:22:28.559Z,101919.23
2018-11-14T20:24:56.534Z,101911.30
2018-11-14T20:27:24.573Z,101922.02
2018-11-14T20:29:53.024Z,101918.42
2018-11-14T20:32:21.042Z,101917.70
2018-11-14T20:34:49.065Z,101915.30
2018-11-14T20:37:17.187Z,101922.09
2018-11-14T20:39:45.168Z,101922.33
2018-11-14T20:42:13.162Z,101924.84
2018-11-14T20:44:41.225Z,101922.80
2018-11-14T20:47:10.277Z,101927.84
2018-11-14T20:49:38.277Z,101923.56
2018-11-14T20:52:06.385Z,101923.66
2018-11-14T20:54:34.410Z,101926.09
2018-11-14T20:57:02.553Z,101928.00
2018-11-14T20:59:30.547Z,101920.48
2018-11-14T21:01:58.548Z,101918.91
2018-11-14T21:04:26.541Z,101916.89
2018-11-14T21:06:54.781Z,101914.96
2018-11-14T21:09:22.793Z,101919.05
2018-11-14T21:11:50.793Z,101912.34
2018-11-14T21:14:18.853Z,101918.42
2018-11-14T21:16:46.854Z,101918.80
2018-11-14T21:19:14.907Z,101918.86
2018-11-14T21:21:43.241Z,101917.72
2018-11-14T21:24:11.461Z,101918.70
2018-11-14T21:26:39.721Z,101917.22
2018-11-14T21:29:07.730Z,101920.12
2018-11-14T21:31:35.819Z,101928.33
2018-11-14T21:34:03.973Z,101914.63
2018-11-14T21:36:32.017Z,101911.80
2018-11-14T21:39:00.027Z,101911.64
2018-11-14T21:41:28.055Z,101911.63
2018-11-14T21:43:56.217Z,101909.08
2018-11-14T21:46:24.309Z,101908.81
2018-11-14T21:48:52.301Z,101903.84
2018-11-14T21:51:20.305Z,101904.31
2018-11-14T21:53:48.441Z,101895.20
2018-11-14T21:56:16.418Z,101903.23
2018-11-14T21:58:44.481Z,101901.14
2018-11-14T22:01:12.584Z,101900.52
2018-11-14T22:03:40.592Z,101899.94
2018-11-14T22:06:08.689Z,101904.63
2018-11-14T22:08:36.679Z,101910.09
2018-11-14T22:11:04.700Z,101897.73
2018-11-14T22:13:32.690Z,101900.12
2018-11-14T22:16:00.673Z,101909.47
2018-11-14T22:18:28.669Z,101908.81
2018-11-14T22:22:00.297Z,101915.35
2018-11-14T22:24:28.401Z,101906.81
2018-11-14T22:26:56.376Z,101906.93
2018-11-14T22:29:24.441Z,101912.67
2018-11-14T22:31:52.417Z,101911.81
2018-11-14T22:34:20.413Z,101910.16
2018-11-14T22:36:48.582Z,101912.55
2018-11-14T22:39:16.668Z,101915.07
2018-11-14T22:41:44.769Z,101914.61
2018-11-14T22:44:12.848Z,101911.00
2018-11-14T22:46:40.946Z,101907.48
2018-11-14T22:49:08.945Z,101906.38
2018-11-14T22:51:37.060Z,101906.14
2018-11-14T22:54:05.121Z,101900.05
2018-11-14T22:56:33.096Z,101897.06
2018-11-14T22:59:01.220Z,101899.94
2018-11-14T23:01:29.341Z,101895.48
2018-11-14T23:03:57.340Z,101896.72
2018-11-14T23:06:25.333Z,101894.20
2018-11-14T23:08:53.413Z,101892.95
2018-11-14T23:11:21.416Z,101902.18
2018-11-14T23:13:49.444Z,101899.55
2018-11-14T23:16:17.545Z,101891.45
2018-11-14T23:18:45.568Z,101887.84
2018-11-14T23:21:13.665Z,101888.88
2018-11-14T23:23:41.717Z,101887.06
2018-11-14T23:26:09.840Z,101883.54
2018-11-14T23:28:37.901Z,101886.83
2018-11-14T23:31:05.937Z,101887.30
2018-11-14T23:33:33.934Z,101888.73
2018-11-14T23:36:01.938Z,101886.64
2018-11-14T23:38:30.637Z,101883.54
2018-11-14T23:40:59.497Z,101882.90
2018-11-14T23:43:29.501Z,101877.61
2018-11-14T23:45:58.173Z,101872.09
2018-11-14T23:48:26.987Z,101874.73
2018-11-14T23:50:55.725Z,101878.57
2018-11-14T23:53:24.522Z,101871.64
2018-11-14T23:55:53.208Z,101861.53
2018-11-14T23:58:21.795Z,101866.58
